ADDS METAR Data INFO
IDs: Format: Raw Decoded Include TAF

Data at: 0259 UTC 17 Jan 2018

KHNZ 170240Z AUTO 00000KT 10SM CLR 00/M07 A3032 RMK AO2 T00021070
KHNZ 170220Z AUTO 00000KT 10SM CLR 01/M08 A3032 RMK AO2 T00061076
KHNZ 170200Z AUTO 00000KT 10SM CLR 00/M07 A3032 RMK AO2 T00031073
KHNZ 170140Z AUTO 00000KT 10SM CLR 00/M07 A3032 RMK AO2 T00001072
KHNZ 170120Z AUTO 00000KT 10SM CLR 00/M07 A3032 RMK AO2 T10011074
KHNZ 170100Z AUTO 00000KT 10SM CLR 01/M08 A3032 RMK AO2 T00071081
KHNZ 170040Z AUTO 00000KT 10SM CLR 00/M07 A3032 RMK AO2 T00001072
KHNZ 170020Z AUTO 00000KT 10SM CLR 00/M07 A3033 RMK AO2 T00031075
KHNZ 170000Z AUTO 00000KT 10SM CLR 00/M07 A3033 RMK AO2 T00001071
KHNZ 162340Z AUTO 00000KT 10SM CLR 01/M07 A3033 RMK AO2 T00101073
KHNZ 162320Z AUTO 00000KT 10SM CLR 02/M08 A3033 RMK AO2 T00221082
KHNZ 162300Z AUTO 00000KT 10SM CLR 03/M08 A3034 RMK AO2 T00251081
KHNZ 162240Z AUTO 00000KT 10SM CLR 03/M08 A3033 RMK AO2 T00331080
KHNZ 162220Z AUTO 17003KT 10SM CLR 04/M08 A3033 RMK AO2 T00371081
KHNZ 162200Z AUTO 19003KT 10SM CLR 04/M08 A3033 RMK AO2 T00431083
KHNZ 162140Z AUTO 17004KT 10SM CLR 05/M08 A3033 RMK AO2 T00481085
KHNZ 162120Z AUTO 18005KT 10SM CLR 05/M09 A3033 RMK AO2 T00541087
KHNZ 162100Z AUTO 17005KT 10SM CLR 06/M09 A3033 RMK AO2 T00601086
KHNZ 162040Z AUTO 17006KT 10SM CLR 06/M09 A3032 RMK AO2 T00591090
KHNZ 162020Z AUTO 15003KT 10SM CLR 06/M09 A3033 RMK AO2 T00621093
KHNZ 162000Z AUTO 24004KT 10SM CLR 06/M09 A3034 RMK AO2 T00621095
KHNZ 161940Z AUTO 20003KT 10SM CLR 06/M10 A3034 RMK AO2 T00611097
KHNZ 161920Z AUTO 23005KT 10SM CLR 06/M10 A3035 RMK AO2 T00591096
KHNZ 161900Z AUTO 24006KT 10SM CLR 06/M09 A3036 RMK AO2 T00591095
KHNZ 161820Z AUTO 21004KT 10SM CLR 05/M10 A3037 RMK AO2 T00501102
KHNZ 161800Z AUTO 00000KT 10SM CLR 05/M11 A3038 RMK AO2 T00471107
KHNZ 161740Z AUTO 00000KT 10SM CLR 04/M11 A3040 RMK AO2 T00411109
KHNZ 161720Z AUTO 00000KT 10SM CLR 04/M11 A3042 RMK AO2 T00371114
KHNZ 161700Z AUTO 23005KT 10SM CLR 04/M11 A3043 RMK AO2 T00381115
KHNZ 161640Z AUTO 00000KT 10SM CLR 03/M11 A3045 RMK AO2 T00341115
KHNZ 161620Z AUTO 00000KT 10SM CLR 03/M10 A3046 RMK AO2 T00251105
KHNZ 161600Z AUTO 29003KT 10SM CLR 02/M10 A3047 RMK AO2 T00221101
KHNZ 161540Z AUTO 25004KT 10SM CLR 02/M08 A3047 RMK AO2 T00161076
KHNZ 161520Z AUTO 25003KT 10SM CLR 00/M07 A3048 RMK AO2 T00031072
KHNZ 161500Z AUTO 22004KT 10SM CLR 00/M07 A3048 RMK AO2 T10011069
KHNZ 161440Z AUTO 24003KT 10SM CLR M01/M06 A3047 RMK AO2 T10081062
KHNZ 161420Z AUTO 00000KT 10SM CLR M02/M06 A3047 RMK AO2 T10161064
KHNZ 161400Z AUTO 00000KT 10SM CLR M02/M07 A3045 RMK AO2 T10251066
KHNZ 161340Z AUTO 00000KT 10SM CLR M04/M07 A3045 RMK AO2 T10381069
KHNZ 161320Z AUTO 00000KT 10SM CLR M06/M08 A3045 RMK AO2 T10641083
KHNZ 161300Z AUTO 00000KT 10SM CLR M08/M10 A3044 RMK AO2 T10821098
KHNZ 161240Z AUTO 00000KT 10SM CLR M08/M10 A3044 RMK AO2 T10801097
KHNZ 161220Z AUTO 00000KT 10SM CLR M08/M10 A3044 RMK AO2 T10801097
KHNZ 161200Z AUTO 00000KT 10SM CLR M08/M10 A3044 RMK AO2 T10811098
KHNZ 161140Z AUTO 00000KT 10SM CLR M08/M10 A3044 RMK AO2 T10801100
KHNZ 161120Z AUTO 00000KT 10SM CLR M08/M10 A3043 RMK AO2 T10821101
KHNZ 161100Z AUTO 00000KT 10SM CLR M08/M10 A3043 RMK AO2 T10801101
KHNZ 161040Z AUTO 00000KT 10SM CLR M08/M10 A3043 RMK AO2 T10801096
KHNZ 161020Z AUTO 00000KT 10SM CLR M08/M10 A3044 RMK AO2 T10771098
KHNZ 161000Z AUTO 00000KT 10SM CLR M08/M10 A3044 RMK AO2 T10761096
KHNZ 160940Z AUTO 00000KT 10SM CLR M08/M10 A3043 RMK AO2 T10761099
KHNZ 160920Z AUTO 00000KT 10SM CLR M07/M10 A3044 RMK AO2 T10751097
KHNZ 160900Z AUTO 00000KT 10SM CLR M07/M09 A3043 RMK AO2 T10751095
KHNZ 160840Z AUTO 00000KT 10SM CLR M09/M10 A3043 RMK AO2 T10871104
KHNZ 160820Z AUTO 00000KT 10SM CLR M07/M09 A3043 RMK AO2 T10751092
KHNZ 160800Z AUTO 00000KT 10SM CLR M07/M09 A3043 RMK AO2 T10691093
KHNZ 160740Z AUTO 00000KT 10SM CLR M07/M09 A3042 RMK AO2 T10701088
KHNZ 160720Z AUTO 00000KT 10SM CLR M07/M09 A3043 RMK AO2 T10661095
KHNZ 160700Z AUTO 00000KT 10SM CLR M07/M09 A3043 RMK AO2 T10691095
KHNZ 160640Z AUTO 00000KT 10SM CLR M07/M09 A3043 RMK AO2 T10741093
KHNZ 160620Z AUTO 00000KT 10SM CLR M07/M09 A3043 RMK AO2 T10661089
KHNZ 160600Z AUTO 00000KT 10SM CLR M07/M09 A3044 RMK AO2 T10661090
KHNZ 160540Z AUTO 00000KT 10SM CLR M07/M09 A3044 RMK AO2 T10661090
KHNZ 160520Z AUTO 00000KT 10SM CLR M06/M09 A3044 RMK AO2 T10601092
KHNZ 160500Z AUTO 00000KT 10SM CLR M06/M09 A3045 RMK AO2 T10571093
KHNZ 160440Z AUTO 00000KT 10SM CLR M06/M09 A3045 RMK AO2 T10651094
KHNZ 160420Z AUTO 00000KT 10SM CLR M06/M09 A3046 RMK AO2 T10601090
KHNZ 160400Z AUTO 00000KT 10SM CLR M06/M09 A3046 RMK AO2 T10601092
KHNZ 160340Z AUTO 00000KT 10SM CLR M05/M09 A3046 RMK AO2 T10531091
KHNZ 160320Z AUTO 00000KT 10SM CLR M06/M09 A3047 RMK AO2 T10601093
KHNZ 160300Z AUTO 00000KT 10SM CLR M05/M08 A3046 RMK AO2 T10551085
KHNZ 160240Z AUTO 00000KT 10SM CLR M05/M09 A3046 RMK AO2 T10501089
KHNZ 160220Z AUTO 00000KT 10SM CLR M04/M10 A3045 RMK AO2 T10421098
KHNZ 160200Z AUTO 00000KT 10SM CLR M05/M09 A3045 RMK AO2 T10501087
KHNZ 160140Z AUTO 00000KT 10SM CLR M05/M09 A3046 RMK AO2 T10491093
KHNZ 160120Z AUTO 00000KT 10SM CLR M05/M10 A3045 RMK AO2 T10461096
KHNZ 160100Z AUTO 00000KT 10SM CLR M04/M10 A3045 RMK AO2 T10431097
KHNZ 160040Z AUTO 00000KT 10SM CLR M04/M10 A3045 RMK AO2 T10401097
KHNZ 160020Z AUTO 00000KT 10SM CLR M03/M10 A3046 RMK AO2 T10311101
KHNZ 160000Z AUTO 00000KT 10SM CLR M03/M10 A3045 RMK AO2 T10351096
KHNZ 152340Z AUTO 00000KT 10SM CLR M03/M10 A3045 RMK AO2 T10261105
KHNZ 152320Z AUTO 00000KT 10SM CLR M03/M10 A3045 RMK AO2 T10281100
KHNZ 152300Z AUTO 00000KT 10SM CLR M02/M10 A3044 RMK AO2 T10221100
KHNZ 152240Z AUTO 00000KT 10SM CLR M01/M10 A3044 RMK AO2 T10121104
KHNZ 152220Z AUTO 00000KT 10SM CLR 00/M10 A3043 RMK AO2 T10031103
KHNZ 152200Z AUTO 04003KT 10SM CLR 00/M11 A3043 RMK AO2 T00001106
KHNZ 152140Z AUTO 04003KT 10SM CLR 01/M11 A3042 RMK AO2 T00061107
KHNZ 152120Z AUTO 01006KT 10SM CLR 01/M11 A3042 RMK AO2 T00101107
KHNZ 152100Z AUTO 36003KT 10SM CLR 01/M11 A3043 RMK AO2 T00111106
KHNZ 152040Z AUTO 02003KT 10SM CLR 01/M10 A3043 RMK AO2 T00131103
KHNZ 152020Z AUTO 35005KT 10SM CLR 02/M10 A3044 RMK AO2 T00151101
KHNZ 152000Z AUTO 33005KT 10SM CLR 01/M10 A3044 RMK AO2 T00141100
KHNZ 151940Z AUTO 32004KT 10SM CLR 01/M09 A3043 RMK AO2 T00101094
KHNZ 151920Z AUTO 00000KT 10SM CLR 01/M10 A3042 RMK AO2 T00061102
KHNZ 151900Z AUTO 04004KT 10SM CLR 00/M10 A3042 RMK AO2 T00031100
KHNZ 151840Z AUTO 03003KT 10SM CLR 00/M10 A3043 RMK AO2 T00041098
KHNZ 151820Z AUTO 06005KT 10SM CLR 00/M10 A3043 RMK AO2 T10031105
KHNZ 151800Z AUTO 34005KT 10SM CLR M01/M10 A3046 RMK AO2 T10061105
KHNZ 151740Z AUTO 04006KT 10SM CLR M01/M11 A3047 RMK AO2 T10101109
KHNZ 151720Z AUTO 36006KT 10SM CLR M02/M12 A3050 RMK AO2 T10161116
KHNZ 151700Z AUTO 35006KT 10SM CLR M02/M12 A3051 RMK AO2 T10181118
KHNZ 151640Z AUTO 35005KT 10SM CLR M02/M12 A3051 RMK AO2 T10221116
KHNZ 151620Z AUTO 02006KT 10SM CLR M03/M12 A3051 RMK AO2 T10331124
KHNZ 151600Z AUTO 34006KT 10SM CLR M04/M13 A3053 RMK AO2 T10371128
KHNZ 151540Z AUTO 35006KT 10SM CLR M04/M13 A3056 RMK AO2 T10431132
KHNZ 151520Z AUTO 36006KT 10SM CLR M05/M14 A3054 RMK AO2 T10551139
KHNZ 151500Z AUTO 36005KT 10SM CLR M06/M14 A3056 RMK AO2 T10631143